Naniwa Maru No.21 — JG5648 — position and weather

sailwx.info

Track history (hours):
 
Tides and Currents Weather Stations Pressure Air Temp Water Temp Dewpoint Dewpoint Depression Visibility Wind Speed Wind Dir Waves Ship Positions

Naniwa Maru No.21

Last reported at 2015-Jan-31 03:31 UTC. Time now 2015-Jan-31 11:36 UTC.
Position N 33°50' E 130°24'.

Length 71 m; draft 5.2 m.

Type: Tanker. MMSI: 431301595.

Date/timePositionNaut miles runAvg speedWind from/ knotsBaromVisibWave heightAir tempDewpointWater temp
2015-Jan-31 03:31N 33°50' E 130°24'1212.3
2015-Jan-31 02:33N 33°40' E 130°16'7 6.0
2015-Jan-31 01:29N 33°36' E 130°23'0 0.0
2015-Jan-31 00:25N 33°36' E 130°23'0 0.0
2015-Jan-30 23:32N 33°36' E 130°23'0 0.0
2015-Jan-30 22:33N 33°36' E 130°23'1 1.2
2015-Jan-30 21:32N 33°37' E 130°22'0 0.0
2015-Jan-30 20:33N 33°37' E 130°22'3 3.2
2015-Jan-30 19:33N 33°39' E 130°18'1212.2
2015-Jan-30 18:33N 33°51' E 130°20'  
2015-Jan-28 04:19N 33°50' E 130°24'1013.0
2015-Jan-28 03:33N 33°43' E 130°16'9 8.7
2015-Jan-28 02:33N 33°36' E 130°23'0 0.0
2015-Jan-28 01:32N 33°36' E 130°23'0 0.0
2015-Jan-28 00:32N 33°36' E 130°23'0 0.0
2015-Jan-27 23:32N 33°36' E 130°23'0 0.0
2015-Jan-27 22:34N 33°36' E 130°23'2 1.9
2015-Jan-27 21:33N 33°38' E 130°21'0 0.0
2015-Jan-27 20:33N 33°38' E 130°21'0 0.0
2015-Jan-27 19:33N 33°38' E 130°21'0 0.0
2015-Jan-27 18:32N 33°38' E 130°21'0 0.0
2015-Jan-27 17:32N 33°38' E 130°21'0 0.0
2015-Jan-27 16:32N 33°38' E 130°21'0 0.0
2015-Jan-27 15:34N 33°38' E 130°21'0 0.0
2015-Jan-27 14:33N 33°38' E 130°21'0 0.0
2015-Jan-27 13:33N 33°38' E 130°21'0 0.0
2015-Jan-27 12:32N 33°38' E 130°21'0 0.1
2015-Jan-27 11:32N 33°38' E 130°21'0 0.0
2015-Jan-27 10:32N 33°38' E 130°21'3 3.0
2015-Jan-27 09:33N 33°39' E 130°18'1211.7
2015-Jan-27 08:32N 33°51' E 130°20'23511.7
2015-Jan-26 12:29N 34°09' E 135°03'4 1.1
2015-Jan-26 08:22N 34°07' E 135°07'1 0.6
2015-Jan-26 07:27N 34°07' E 135°08'0 0.0
2015-Jan-26 06:19N 34°07' E 135°07'0 0.0
2015-Jan-26 05:12N 34°07' E 135°07'0 0.1
2015-Jan-26 04:27N 34°07' E 135°08'0 0.0
2015-Jan-26 03:33N 34°07' E 135°08'0 0.3
2015-Jan-26 02:32N 34°08' E 135°07'2711.7
2015-Jan-26 00:14N 34°34' E 135°02'810.1
2015-Jan-25 23:25N 34°35' E 134°53'22312.5
2015-Jan-25 05:32N 33°53' E 130°27'1414.0
2015-Jan-25 04:33N 33°43' E 130°16'8 8.2
2015-Jan-25 03:32N 33°36' E 130°23'0 0.0
2015-Jan-25 02:32N 33°36' E 130°23'0 0.0
2015-Jan-25 01:32N 33°36' E 130°23'1 0.6
2015-Jan-25 00:33N 33°37' E 130°23'1 1.4
2015-Jan-24 23:33N 33°37' E 130°22'0 0.1
2015-Jan-24 22:32N 33°37' E 130°21'0 0.0
2015-Jan-24 21:32N 33°37' E 130°21'0 0.0
2015-Jan-24 20:31N 33°37' E 130°21'0 0.0
2015-Jan-24 19:32N 33°37' E 130°21'0 0.1
2015-Jan-24 18:33N 33°37' E 130°21'0 0.0
2015-Jan-24 17:31N 33°37' E 130°21'0 0.1
2015-Jan-24 16:33N 33°37' E 130°21'0 0.0
2015-Jan-24 15:32N 33°37' E 130°21'9 8.9
2015-Jan-24 14:29N 33°46' E 130°18'237 7.5
2015-Jan-23 07:06N 34°37' E 134°57'6 8.8
2015-Jan-23 06:28N 34°36' E 135°04'1111.2
2015-Jan-23 05:32N 34°25' E 135°03'1210.7
2015-Jan-23 04:22N 34°13' E 135°02'7 1.7
2015-Jan-23 00:10N 34°07' E 135°08'3 4.2
2015-Jan-22 23:34N 34°09' E 135°07'4 3.6
2015-Jan-22 22:33N 34°13' E 135°09'0 0.0
2015-Jan-22 21:33N 34°13' E 135°09'0 0.0
2015-Jan-22 20:33N 34°13' E 135°09'0 0.0
2015-Jan-22 19:33N 34°13' E 135°09'0 0.0
2015-Jan-22 18:34N 34°13' E 135°09'0 0.0
2015-Jan-22 17:33N 34°13' E 135°09'0 0.0
2015-Jan-22 16:33N 34°13' E 135°09'0 0.0
2015-Jan-22 15:33N 34°13' E 135°09'0 0.0
2015-Jan-22 14:33N 34°13' E 135°09'0 0.0
2015-Jan-22 13:33N 34°13' E 135°09'0 0.0
2015-Jan-22 12:33N 34°13' E 135°09'0 0.0
2015-Jan-22 11:33N 34°13' E 135°09'0 0.0
2015-Jan-22 10:33N 34°13' E 135°09'0 0.0
2015-Jan-22 09:33N 34°13' E 135°09'0 0.0
2015-Jan-22 08:33N 34°13' E 135°09'0 0.0
2015-Jan-22 07:33N 34°13' E 135°09'0 0.0
2015-Jan-22 06:33N 34°13' E 135°09'0 0.0
2015-Jan-22 05:33N 34°13' E 135°09'0 0.0
2015-Jan-22 04:33N 34°13' E 135°09'0 0.0
2015-Jan-22 03:34N 34°13' E 135°09'0 0.0
2015-Jan-22 02:33N 34°13' E 135°09'0 0.0
2015-Jan-22 01:33N 34°13' E 135°09'0 0.0
2015-Jan-22 00:33N 34°13' E 135°09'0 0.0
2015-Jan-21 23:33N 34°13' E 135°09'2 2.2
2015-Jan-21 22:50N 34°12' E 135°07'0 0.1
2015-Jan-21 22:46N 34°12' E 135°07'0 0.0
2015-Jan-21 22:34N 34°12' E 135°07'0 0.0
2015-Jan-21 21:33N 34°12' E 135°07'0 0.0
2015-Jan-21 20:33N 34°12' E 135°07'0 0.0
2015-Jan-21 19:34N 34°13' E 135°07'0 0.0
2015-Jan-21 18:33N 34°13' E 135°07'6 5.8
2015-Jan-21 17:33N 34°10' E 135°00'  
Track history (hours):
 
Tides and Currents Weather Stations Pressure Air Temp Water Temp Dewpoint Dewpoint Depression Visibility Wind Speed Wind Dir Waves Ship Positions

Naniwa Maru No.21

Last reported at 2015-Jan-31 03:31 UTC. Time now 2015-Jan-31 11:36 UTC.
Position N 33°50' E 130°24'.

Length 71 m; draft 5.2 m.

Type: Tanker. MMSI: 431301595.

Date/timePositionNaut miles runAvg speedWind from/ knotsBaromVisibWave heightAir tempDewpointWater temp
2015-Jan-31 03:31N 33°50' E 130°24'1212.3
2015-Jan-31 02:33N 33°40' E 130°16'7 6.0
2015-Jan-31 01:29N 33°36' E 130°23'0 0.0
2015-Jan-31 00:25N 33°36' E 130°23'0 0.0
2015-Jan-30 23:32N 33°36' E 130°23'0 0.0
2015-Jan-30 22:33N 33°36' E 130°23'1 1.2
2015-Jan-30 21:32N 33°37' E 130°22'0 0.0
2015-Jan-30 20:33N 33°37' E 130°22'3 3.2
2015-Jan-30 19:33N 33°39' E 130°18'1212.2
2015-Jan-30 18:33N 33°51' E 130°20'  
2015-Jan-28 04:19N 33°50' E 130°24'1013.0
2015-Jan-28 03:33N 33°43' E 130°16'9 8.7
2015-Jan-28 02:33N 33°36' E 130°23'0 0.0
2015-Jan-28 01:32N 33°36' E 130°23'0 0.0
2015-Jan-28 00:32N 33°36' E 130°23'0 0.0
2015-Jan-27 23:32N 33°36' E 130°23'0 0.0
2015-Jan-27 22:34N 33°36' E 130°23'2 1.9
2015-Jan-27 21:33N 33°38' E 130°21'0 0.0
2015-Jan-27 20:33N 33°38' E 130°21'0 0.0
2015-Jan-27 19:33N 33°38' E 130°21'0 0.0
2015-Jan-27 18:32N 33°38' E 130°21'0 0.0
2015-Jan-27 17:32N 33°38' E 130°21'0 0.0
2015-Jan-27 16:32N 33°38' E 130°21'0 0.0
2015-Jan-27 15:34N 33°38' E 130°21'0 0.0
2015-Jan-27 14:33N 33°38' E 130°21'0 0.0
2015-Jan-27 13:33N 33°38' E 130°21'0 0.0
2015-Jan-27 12:32N 33°38' E 130°21'0 0.1
2015-Jan-27 11:32N 33°38' E 130°21'0 0.0
2015-Jan-27 10:32N 33°38' E 130°21'3 3.0
2015-Jan-27 09:33N 33°39' E 130°18'1211.7
2015-Jan-27 08:32N 33°51' E 130°20'23511.7
2015-Jan-26 12:29N 34°09' E 135°03'4 1.1
2015-Jan-26 08:22N 34°07' E 135°07'1 0.6
2015-Jan-26 07:27N 34°07' E 135°08'0 0.0
2015-Jan-26 06:19N 34°07' E 135°07'0 0.0
2015-Jan-26 05:12N 34°07' E 135°07'0 0.1
2015-Jan-26 04:27N 34°07' E 135°08'0 0.0
2015-Jan-26 03:33N 34°07' E 135°08'0 0.3
2015-Jan-26 02:32N 34°08' E 135°07'2711.7
2015-Jan-26 00:14N 34°34' E 135°02'810.1
2015-Jan-25 23:25N 34°35' E 134°53'22312.5
2015-Jan-25 05:32N 33°53' E 130°27'1414.0
2015-Jan-25 04:33N 33°43' E 130°16'8 8.2
2015-Jan-25 03:32N 33°36' E 130°23'0 0.0
2015-Jan-25 02:32N 33°36' E 130°23'0 0.0
2015-Jan-25 01:32N 33°36' E 130°23'1 0.6
2015-Jan-25 00:33N 33°37' E 130°23'1 1.4
2015-Jan-24 23:33N 33°37' E 130°22'0 0.1
2015-Jan-24 22:32N 33°37' E 130°21'0 0.0
2015-Jan-24 21:32N 33°37' E 130°21'0 0.0
2015-Jan-24 20:31N 33°37' E 130°21'0 0.0
2015-Jan-24 19:32N 33°37' E 130°21'0 0.1
2015-Jan-24 18:33N 33°37' E 130°21'0 0.0
2015-Jan-24 17:31N 33°37' E 130°21'0 0.1
2015-Jan-24 16:33N 33°37' E 130°21'0 0.0
2015-Jan-24 15:32N 33°37' E 130°21'9 8.9
2015-Jan-24 14:29N 33°46' E 130°18'237 7.5
2015-Jan-23 07:06N 34°37' E 134°57'6 8.8
2015-Jan-23 06:28N 34°36' E 135°04'1111.2
2015-Jan-23 05:32N 34°25' E 135°03'1210.7
2015-Jan-23 04:22N 34°13' E 135°02'7 1.7
2015-Jan-23 00:10N 34°07' E 135°08'3 4.2
2015-Jan-22 23:34N 34°09' E 135°07'4 3.6
2015-Jan-22 22:33N 34°13' E 135°09'0 0.0
2015-Jan-22 21:33N 34°13' E 135°09'0 0.0
2015-Jan-22 20:33N 34°13' E 135°09'0 0.0
2015-Jan-22 19:33N 34°13' E 135°09'0 0.0
2015-Jan-22 18:34N 34°13' E 135°09'0 0.0
2015-Jan-22 17:33N 34°13' E 135°09'0 0.0
2015-Jan-22 16:33N 34°13' E 135°09'0 0.0
2015-Jan-22 15:33N 34°13' E 135°09'0 0.0
2015-Jan-22 14:33N 34°13' E 135°09'0 0.0
2015-Jan-22 13:33N 34°13' E 135°09'0 0.0
2015-Jan-22 12:33N 34°13' E 135°09'0 0.0
2015-Jan-22 11:33N 34°13' E 135°09'0 0.0
2015-Jan-22 10:33N 34°13' E 135°09'0 0.0
2015-Jan-22 09:33N 34°13' E 135°09'0 0.0
2015-Jan-22 08:33N 34°13' E 135°09'0 0.0
2015-Jan-22 07:33N 34°13' E 135°09'0 0.0
2015-Jan-22 06:33N 34°13' E 135°09'0 0.0
2015-Jan-22 05:33N 34°13' E 135°09'0 0.0
2015-Jan-22 04:33N 34°13' E 135°09'0 0.0
2015-Jan-22 03:34N 34°13' E 135°09'0 0.0
2015-Jan-22 02:33N 34°13' E 135°09'0 0.0
2015-Jan-22 01:33N 34°13' E 135°09'0 0.0
2015-Jan-22 00:33N 34°13' E 135°09'0 0.0
2015-Jan-21 23:33N 34°13' E 135°09'2 2.2
2015-Jan-21 22:50N 34°12' E 135°07'0 0.1
2015-Jan-21 22:46N 34°12' E 135°07'0 0.0
2015-Jan-21 22:34N 34°12' E 135°07'0 0.0
2015-Jan-21 21:33N 34°12' E 135°07'0 0.0
2015-Jan-21 20:33N 34°12' E 135°07'0 0.0
2015-Jan-21 19:34N 34°13' E 135°07'0 0.0
2015-Jan-21 18:33N 34°13' E 135°07'6 5.8
2015-Jan-21 17:33N 34°10' E 135°00'  

Dump ship's entire track history